sensor_id;sensor_type;location;lat;lon;timestamp;temperature;humidity
19220;DHT22;9744;49.364;7.484;2023-02-12T00:00:31;6.30;99.90
19220;DHT22;9744;49.364;7.484;2023-02-12T00:02:59;6.30;99.90
19220;DHT22;9744;49.364;7.484;2023-02-12T00:05:27;6.30;99.90
19220;DHT22;9744;49.364;7.484;2023-02-12T00:07:55;6.20;99.90
19220;DHT22;9744;49.364;7.484;2023-02-12T00:10:22;6.20;99.90
19220;DHT22;9744;49.364;7.484;2023-02-12T00:12:50;6.20;99.90
19220;DHT22;9744;49.364;7.484;2023-02-12T00:15:19;6.20;99.90
19220;DHT22;9744;49.364;7.484;2023-02-12T00:17:46;6.20;99.90
19220;DHT22;9744;49.364;7.484;2023-02-12T00:20:13;6.30;99.90
19220;DHT22;9744;49.364;7.484;2023-02-12T00:22:42;6.30;99.90
19220;DHT22;9744;49.364;7.484;2023-02-12T00:25:09;6.30;99.90
19220;DHT22;9744;49.364;7.484;2023-02-12T00:27:38;6.30;99.90
19220;DHT22;9744;49.364;7.484;2023-02-12T00:30:06;6.40;99.90
19220;DHT22;9744;49.364;7.484;2023-02-12T00:32:34;6.30;99.90
19220;DHT22;9744;49.364;7.484;2023-02-12T00:35:02;6.40;99.90
19220;DHT22;9744;49.364;7.484;2023-02-12T00:37:29;6.30;99.90
19220;DHT22;9744;49.364;7.484;2023-02-12T00:39:57;6.30;99.90
19220;DHT22;9744;49.364;7.484;2023-02-12T00:42:25;6.30;99.90
19220;DHT22;9744;49.364;7.484;2023-02-12T00:44:52;6.30;99.90
19220;DHT22;9744;49.364;7.484;2023-02-12T00:47:19;6.30;99.90
19220;DHT22;9744;49.364;7.484;2023-02-12T00:49:49;6.30;99.90
19220;DHT22;9744;49.364;7.484;2023-02-12T00:52:16;6.30;99.90
19220;DHT22;9744;49.364;7.484;2023-02-12T00:54:43;6.30;99.90
19220;DHT22;9744;49.364;7.484;2023-02-12T00:57:12;6.30;99.90
19220;DHT22;9744;49.364;7.484;2023-02-12T00:59:39;6.30;99.90
19220;DHT22;9744;49.364;7.484;2023-02-12T01:02:07;6.30;99.90
19220;DHT22;9744;49.364;7.484;2023-02-12T01:04:34;6.30;99.90
19220;DHT22;9744;49.364;7.484;2023-02-12T01:07:02;6.30;99.90
19220;DHT22;9744;49.364;7.484;2023-02-12T01:09:34;6.30;99.90
19220;DHT22;9744;49.364;7.484;2023-02-12T01:12:01;6.30;99.90
19220;DHT22;9744;49.364;7.484;2023-02-12T01:14:30;6.30;99.90
19220;DHT22;9744;49.364;7.484;2023-02-12T01:16:57;6.30;99.90
19220;DHT22;9744;49.364;7.484;2023-02-12T01:19:24;6.30;99.90
19220;DHT22;9744;49.364;7.484;2023-02-12T01:21:52;6.30;99.90
19220;DHT22;9744;49.364;7.484;2023-02-12T01:24:19;6.30;99.90
19220;DHT22;9744;49.364;7.484;2023-02-12T01:26:47;6.30;99.90
19220;DHT22;9744;49.364;7.484;2023-02-12T01:29:14;6.30;99.90
19220;DHT22;9744;49.364;7.484;2023-02-12T01:31:42;6.30;99.90
19220;DHT22;9744;49.364;7.484;2023-02-12T01:34:10;6.30;99.90
19220;DHT22;9744;49.364;7.484;2023-02-12T01:36:37;6.30;99.90
19220;DHT22;9744;49.364;7.484;2023-02-12T01:39:05;6.30;99.90
19220;DHT22;9744;49.364;7.484;2023-02-12T01:41:35;6.30;99.90
19220;DHT22;9744;49.364;7.484;2023-02-12T01:44:08;6.30;99.90
19220;DHT22;9744;49.364;7.484;2023-02-12T01:46:36;6.30;99.90
19220;DHT22;9744;49.364;7.484;2023-02-12T01:49:10;6.30;99.90
19220;DHT22;9744;49.364;7.484;2023-02-12T01:51:38;6.30;99.90
19220;DHT22;9744;49.364;7.484;2023-02-12T01:54:07;6.30;99.90
19220;DHT22;9744;49.364;7.484;2023-02-12T01:56:36;6.30;99.90
19220;DHT22;9744;49.364;7.484;2023-02-12T01:59:04;6.30;99.90
19220;DHT22;9744;49.364;7.484;2023-02-12T02:01:32;6.30;99.90
19220;DHT22;9744;49.364;7.484;2023-02-12T02:04:02;6.30;99.90
19220;DHT22;9744;49.364;7.484;2023-02-12T02:06:35;6.30;99.90
19220;DHT22;9744;49.364;7.484;2023-02-12T02:09:05;6.30;99.90
19220;DHT22;9744;49.364;7.484;2023-02-12T02:11:32;6.30;99.90
19220;DHT22;9744;49.364;7.484;2023-02-12T02:14:17;6.20;99.90
19220;DHT22;9744;49.364;7.484;2023-02-12T02:20:20;6.20;99.90
19220;DHT22;9744;49.364;7.484;2023-02-12T02:23:06;6.20;99.90
19220;DHT22;9744;49.364;7.484;2023-02-12T02:26:13;6.20;99.90
19220;DHT22;9744;49.364;7.484;2023-02-12T02:28:58;6.20;99.90
19220;DHT22;9744;49.364;7.484;2023-02-12T02:31:36;6.20;99.90
19220;DHT22;9744;49.364;7.484;2023-02-12T02:34:12;6.20;99.90
19220;DHT22;9744;49.364;7.484;2023-02-12T02:36:45;6.20;99.90
19220;DHT22;9744;49.364;7.484;2023-02-12T02:39:19;6.20;99.90
19220;DHT22;9744;49.364;7.484;2023-02-12T02:41:54;6.20;99.90
19220;DHT22;9744;49.364;7.484;2023-02-12T02:44:25;6.20;99.90
19220;DHT22;9744;49.364;7.484;2023-02-12T02:46:56;6.30;99.90
19220;DHT22;9744;49.364;7.484;2023-02-12T02:49:27;6.20;99.90
19220;DHT22;9744;49.364;7.484;2023-02-12T02:51:58;6.20;99.90
19220;DHT22;9744;49.364;7.484;2023-02-12T02:54:31;6.30;99.90
19220;DHT22;9744;49.364;7.484;2023-02-12T02:57:04;6.30;99.90
19220;DHT22;9744;49.364;7.484;2023-02-12T02:59:35;6.20;99.90
19220;DHT22;9744;49.364;7.484;2023-02-12T03:02:09;6.20;99.90
19220;DHT22;9744;49.364;7.484;2023-02-12T03:04:41;6.20;99.90
19220;DHT22;9744;49.364;7.484;2023-02-12T03:07:12;6.20;99.90
19220;DHT22;9744;49.364;7.484;2023-02-12T03:09:44;6.20;99.90
19220;DHT22;9744;49.364;7.484;2023-02-12T03:12:15;6.20;99.90
19220;DHT22;9744;49.364;7.484;2023-02-12T03:14:47;6.20;99.90
19220;DHT22;9744;49.364;7.484;2023-02-12T03:17:20;6.20;99.90
19220;DHT22;9744;49.364;7.484;2023-02-12T03:19:54;6.20;99.90
19220;DHT22;9744;49.364;7.484;2023-02-12T03:22:24;6.30;99.90
19220;DHT22;9744;49.364;7.484;2023-02-12T03:24:57;6.30;99.90
19220;DHT22;9744;49.364;7.484;2023-02-12T03:27:30;6.20;99.90
19220;DHT22;9744;49.364;7.484;2023-02-12T03:29:58;6.20;99.90
19220;DHT22;9744;49.364;7.484;2023-02-12T03:32:32;6.20;99.90
19220;DHT22;9744;49.364;7.484;2023-02-12T03:35:09;6.20;99.90
19220;DHT22;9744;49.364;7.484;2023-02-12T03:37:42;6.20;99.90
19220;DHT22;9744;49.364;7.484;2023-02-12T03:40:15;6.20;99.90
19220;DHT22;9744;49.364;7.484;2023-02-12T03:42:47;6.20;99.90
19220;DHT22;9744;49.364;7.484;2023-02-12T03:45:22;6.20;99.90
19220;DHT22;9744;49.364;7.484;2023-02-12T03:48:01;6.20;99.90
19220;DHT22;9744;49.364;7.484;2023-02-12T03:50:37;6.20;99.90
19220;DHT22;9744;49.364;7.484;2023-02-12T03:53:06;6.20;99.90
19220;DHT22;9744;49.364;7.484;2023-02-12T03:55:37;6.20;99.90
19220;DHT22;9744;49.364;7.484;2023-02-12T03:58:08;6.20;99.90
19220;DHT22;9744;49.364;7.484;2023-02-12T04:00:37;6.20;99.90
19220;DHT22;9744;49.364;7.484;2023-02-12T04:03:06;6.10;99.90
19220;DHT22;9744;49.364;7.484;2023-02-12T04:05:33;6.20;99.90
19220;DHT22;9744;49.364;7.484;2023-02-12T04:08:01;6.10;99.90
19220;DHT22;9744;49.364;7.484;2023-02-12T04:10:34;6.20;99.90
19220;DHT22;9744;49.364;7.484;2023-02-12T04:13:10;6.20;99.90
19220;DHT22;9744;49.364;7.484;2023-02-12T04:15:55;6.20;99.90
19220;DHT22;9744;49.364;7.484;2023-02-12T04:18:40;6.20;99.90
19220;DHT22;9744;49.364;7.484;2023-02-12T04:21:13;6.20;99.90
19220;DHT22;9744;49.364;7.484;2023-02-12T04:23:48;6.10;99.90
19220;DHT22;9744;49.364;7.484;2023-02-12T04:26:33;6.10;99.90
19220;DHT22;9744;49.364;7.484;2023-02-12T04:29:13;6.10;99.90
19220;DHT22;9744;49.364;7.484;2023-02-12T04:31:47;6.10;99.90
19220;DHT22;9744;49.364;7.484;2023-02-12T04:34:19;6.10;99.90
19220;DHT22;9744;49.364;7.484;2023-02-12T04:36:55;6.10;99.90
19220;DHT22;9744;49.364;7.484;2023-02-12T04:39:25;6.00;99.90
19220;DHT22;9744;49.364;7.484;2023-02-12T04:41:53;6.00;99.90
19220;DHT22;9744;49.364;7.484;2023-02-12T04:44:22;5.90;99.90
19220;DHT22;9744;49.364;7.484;2023-02-12T04:46:50;6.00;99.90
19220;DHT22;9744;49.364;7.484;2023-02-12T04:49:20;6.00;99.90
19220;DHT22;9744;49.364;7.484;2023-02-12T04:51:48;5.90;99.90
19220;DHT22;9744;49.364;7.484;2023-02-12T04:54:17;6.00;99.90
19220;DHT22;9744;49.364;7.484;2023-02-12T04:56:45;6.00;99.90
19220;DHT22;9744;49.364;7.484;2023-02-12T04:59:13;5.90;99.90
19220;DHT22;9744;49.364;7.484;2023-02-12T05:01:41;5.90;99.90
19220;DHT22;9744;49.364;7.484;2023-02-12T05:04:11;5.90;99.90
19220;DHT22;9744;49.364;7.484;2023-02-12T05:06:41;5.90;99.90
19220;DHT22;9744;49.364;7.484;2023-02-12T05:09:11;5.90;99.90
19220;DHT22;9744;49.364;7.484;2023-02-12T05:11:39;6.00;99.90
19220;DHT22;9744;49.364;7.484;2023-02-12T05:14:06;6.00;99.90
19220;DHT22;9744;49.364;7.484;2023-02-12T05:16:34;6.00;99.90
19220;DHT22;9744;49.364;7.484;2023-02-12T05:19:01;6.10;99.90
19220;DHT22;9744;49.364;7.484;2023-02-12T05:21:28;6.10;99.90
19220;DHT22;9744;49.364;7.484;2023-02-12T05:23:56;6.10;99.90
19220;DHT22;9744;49.364;7.484;2023-02-12T05:26:24;6.00;99.90
19220;DHT22;9744;49.364;7.484;2023-02-12T05:28:51;6.00;99.90
19220;DHT22;9744;49.364;7.484;2023-02-12T05:31:19;5.90;99.90
19220;DHT22;9744;49.364;7.484;2023-02-12T05:33:47;5.90;99.90
19220;DHT22;9744;49.364;7.484;2023-02-12T05:36:16;5.90;99.90
19220;DHT22;9744;49.364;7.484;2023-02-12T05:38:43;6.00;99.90
19220;DHT22;9744;49.364;7.484;2023-02-12T05:41:13;6.00;99.90
19220;DHT22;9744;49.364;7.484;2023-02-12T05:43:41;6.00;99.90
19220;DHT22;9744;49.364;7.484;2023-02-12T05:46:09;6.00;99.90
19220;DHT22;9744;49.364;7.484;2023-02-12T05:48:37;5.90;99.90
19220;DHT22;9744;49.364;7.484;2023-02-12T05:51:06;5.90;99.90
19220;DHT22;9744;49.364;7.484;2023-02-12T05:53:35;5.80;99.90
19220;DHT22;9744;49.364;7.484;2023-02-12T05:56:09;5.80;99.90
19220;DHT22;9744;49.364;7.484;2023-02-12T05:58:39;5.80;99.90
19220;DHT22;9744;49.364;7.484;2023-02-12T06:01:11;5.80;99.90
19220;DHT22;9744;49.364;7.484;2023-02-12T06:03:39;5.80;99.90
19220;DHT22;9744;49.364;7.484;2023-02-12T06:06:06;5.80;99.90
19220;DHT22;9744;49.364;7.484;2023-02-12T06:08:33;5.80;99.90
19220;DHT22;9744;49.364;7.484;2023-02-12T06:11:01;5.90;99.90
19220;DHT22;9744;49.364;7.484;2023-02-12T06:13:30;5.80;99.90
19220;DHT22;9744;49.364;7.484;2023-02-12T06:15:59;5.80;99.90
19220;DHT22;9744;49.364;7.484;2023-02-12T06:18:27;5.80;99.90
19220;DHT22;9744;49.364;7.484;2023-02-12T06:20:59;5.80;99.90
19220;DHT22;9744;49.364;7.484;2023-02-12T06:23:28;5.80;99.90
19220;DHT22;9744;49.364;7.484;2023-02-12T06:25:56;5.80;99.90
19220;DHT22;9744;49.364;7.484;2023-02-12T06:28:23;5.80;99.90
19220;DHT22;9744;49.364;7.484;2023-02-12T06:30:50;5.80;99.90
19220;DHT22;9744;49.364;7.484;2023-02-12T06:33:19;5.80;99.90
19220;DHT22;9744;49.364;7.484;2023-02-12T06:35:46;5.90;99.90
19220;DHT22;9744;49.364;7.484;2023-02-12T06:38:14;5.90;99.90
19220;DHT22;9744;49.364;7.484;2023-02-12T06:40:41;6.00;99.90
19220;DHT22;9744;49.364;7.484;2023-02-12T06:43:09;6.00;99.90
19220;DHT22;9744;49.364;7.484;2023-02-12T06:45:36;6.00;99.90
19220;DHT22;9744;49.364;7.484;2023-02-12T06:48:03;6.00;99.90
19220;DHT22;9744;49.364;7.484;2023-02-12T06:50:32;6.00;99.90
19220;DHT22;9744;49.364;7.484;2023-02-12T06:52:59;6.00;99.90
19220;DHT22;9744;49.364;7.484;2023-02-12T06:55:26;6.00;99.90
19220;DHT22;9744;49.364;7.484;2023-02-12T06:57:53;6.10;99.90
19220;DHT22;9744;49.364;7.484;2023-02-12T07:00:22;6.10;99.90
19220;DHT22;9744;49.364;7.484;2023-02-12T07:02:53;6.10;99.90
19220;DHT22;9744;49.364;7.484;2023-02-12T07:05:21;6.10;99.90
19220;DHT22;9744;49.364;7.484;2023-02-12T07:07:51;6.10;99.90
19220;DHT22;9744;49.364;7.484;2023-02-12T07:10:18;6.10;99.90
19220;DHT22;9744;49.364;7.484;2023-02-12T07:12:47;6.10;99.90
19220;DHT22;9744;49.364;7.484;2023-02-12T07:15:14;6.10;99.90
19220;DHT22;9744;49.364;7.484;2023-02-12T07:17:41;6.10;99.90
19220;DHT22;9744;49.364;7.484;2023-02-12T07:20:09;6.20;99.90
19220;DHT22;9744;49.364;7.484;2023-02-12T07:22:36;6.20;99.90
19220;DHT22;9744;49.364;7.484;2023-02-12T07:25:05;6.20;99.90
19220;DHT22;9744;49.364;7.484;2023-02-12T07:27:35;6.20;99.90
19220;DHT22;9744;49.364;7.484;2023-02-12T07:30:03;6.20;99.90
19220;DHT22;9744;49.364;7.484;2023-02-12T07:32:31;6.20;99.90
19220;DHT22;9744;49.364;7.484;2023-02-12T07:34:58;6.20;99.90
19220;DHT22;9744;49.364;7.484;2023-02-12T07:37:25;6.20;99.90
19220;DHT22;9744;49.364;7.484;2023-02-12T07:39:52;6.20;99.90
19220;DHT22;9744;49.364;7.484;2023-02-12T07:42:21;6.20;99.90
19220;DHT22;9744;49.364;7.484;2023-02-12T07:44:49;6.20;99.90
19220;DHT22;9744;49.364;7.484;2023-02-12T07:47:16;6.20;99.90
19220;DHT22;9744;49.364;7.484;2023-02-12T07:49:43;6.20;99.90
19220;DHT22;9744;49.364;7.484;2023-02-12T07:52:11;6.30;99.90
19220;DHT22;9744;49.364;7.484;2023-02-12T07:54:38;6.30;99.90
19220;DHT22;9744;49.364;7.484;2023-02-12T07:57:05;6.30;99.90
19220;DHT22;9744;49.364;7.484;2023-02-12T07:59:33;6.30;99.90
19220;DHT22;9744;49.364;7.484;2023-02-12T08:02:01;6.30;99.90
19220;DHT22;9744;49.364;7.484;2023-02-12T08:04:28;6.30;99.90
19220;DHT22;9744;49.364;7.484;2023-02-12T08:06:55;6.30;99.90
19220;DHT22;9744;49.364;7.484;2023-02-12T08:09:24;6.30;99.90
19220;DHT22;9744;49.364;7.484;2023-02-12T08:11:52;6.30;99.90
19220;DHT22;9744;49.364;7.484;2023-02-12T08:14:21;6.20;99.90
19220;DHT22;9744;49.364;7.484;2023-02-12T08:16:50;6.30;99.90
19220;DHT22;9744;49.364;7.484;2023-02-12T08:19:18;6.20;99.90
19220;DHT22;9744;49.364;7.484;2023-02-12T08:21:48;6.20;99.90
19220;DHT22;9744;49.364;7.484;2023-02-12T08:24:16;6.10;99.90
19220;DHT22;9744;49.364;7.484;2023-02-12T08:26:43;6.10;99.90
19220;DHT22;9744;49.364;7.484;2023-02-12T08:29:11;6.10;99.90
19220;DHT22;9744;49.364;7.484;2023-02-12T08:31:40;6.10;99.90
19220;DHT22;9744;49.364;7.484;2023-02-12T08:34:15;6.00;99.90
19220;DHT22;9744;49.364;7.484;2023-02-12T08:36:44;6.00;99.90
19220;DHT22;9744;49.364;7.484;2023-02-12T08:39:12;6.00;99.90
19220;DHT22;9744;49.364;7.484;2023-02-12T08:41:39;6.00;99.90
19220;DHT22;9744;49.364;7.484;2023-02-12T08:44:09;6.00;99.90
19220;DHT22;9744;49.364;7.484;2023-02-12T08:46:38;6.00;99.90
19220;DHT22;9744;49.364;7.484;2023-02-12T08:49:07;6.00;99.90
19220;DHT22;9744;49.364;7.484;2023-02-12T08:51:38;6.00;99.90
19220;DHT22;9744;49.364;7.484;2023-02-12T08:54:09;6.10;99.90
19220;DHT22;9744;49.364;7.484;2023-02-12T08:56:37;6.20;99.90
19220;DHT22;9744;49.364;7.484;2023-02-12T08:59:06;6.20;99.90
19220;DHT22;9744;49.364;7.484;2023-02-12T09:01:35;6.30;99.90
19220;DHT22;9744;49.364;7.484;2023-02-12T09:04:04;6.30;99.90
19220;DHT22;9744;49.364;7.484;2023-02-12T09:06:32;6.30;99.90
19220;DHT22;9744;49.364;7.484;2023-02-12T09:09:02;6.30;99.90
19220;DHT22;9744;49.364;7.484;2023-02-12T09:11:29;6.30;99.90
19220;DHT22;9744;49.364;7.484;2023-02-12T09:13:58;6.30;99.90
19220;DHT22;9744;49.364;7.484;2023-02-12T09:16:25;6.40;99.90
19220;DHT22;9744;49.364;7.484;2023-02-12T09:18:53;6.40;99.90
19220;DHT22;9744;49.364;7.484;2023-02-12T09:21:22;6.40;99.90
19220;DHT22;9744;49.364;7.484;2023-02-12T09:23:50;6.40;99.90
19220;DHT22;9744;49.364;7.484;2023-02-12T09:26:20;6.50;99.90
19220;DHT22;9744;49.364;7.484;2023-02-12T09:28:55;6.40;99.90
19220;DHT22;9744;49.364;7.484;2023-02-12T09:31:24;6.40;99.90
19220;DHT22;9744;49.364;7.484;2023-02-12T09:33:52;6.40;99.90
19220;DHT22;9744;49.364;7.484;2023-02-12T09:36:20;6.40;99.90
19220;DHT22;9744;49.364;7.484;2023-02-12T09:38:48;6.40;99.90
19220;DHT22;9744;49.364;7.484;2023-02-12T09:44:19;6.60;99.90
19220;DHT22;9744;49.364;7.484;2023-02-12T09:46:52;6.70;99.90
19220;DHT22;9744;49.364;7.484;2023-02-12T09:49:32;6.70;99.90
19220;DHT22;9744;49.364;7.484;2023-02-12T09:52:13;6.70;99.90
19220;DHT22;9744;49.364;7.484;2023-02-12T09:54:41;6.60;99.90
19220;DHT22;9744;49.364;7.484;2023-02-12T09:57:16;6.60;99.90
19220;DHT22;9744;49.364;7.484;2023-02-12T09:59:53;6.60;99.90
19220;DHT22;9744;49.364;7.484;2023-02-12T10:02:23;6.60;99.90
19220;DHT22;9744;49.364;7.484;2023-02-12T10:04:52;6.60;99.90
19220;DHT22;9744;49.364;7.484;2023-02-12T10:07:27;6.60;99.90
19220;DHT22;9744;49.364;7.484;2023-02-12T10:10:06;6.70;99.90
19220;DHT22;9744;49.364;7.484;2023-02-12T10:12:48;6.70;99.90
19220;DHT22;9744;49.364;7.484;2023-02-12T10:15:26;6.60;99.90
19220;DHT22;9744;49.364;7.484;2023-02-12T10:18:10;6.70;99.90
19220;DHT22;9744;49.364;7.484;2023-02-12T10:20:52;6.70;99.90
19220;DHT22;9744;49.364;7.484;2023-02-12T10:23:35;6.70;99.90
19220;DHT22;9744;49.364;7.484;2023-02-12T10:26:12;6.80;99.90
19220;DHT22;9744;49.364;7.484;2023-02-12T10:28:42;6.70;99.90
19220;DHT22;9744;49.364;7.484;2023-02-12T10:31:15;6.70;99.90
19220;DHT22;9744;49.364;7.484;2023-02-12T10:33:45;6.70;99.90
19220;DHT22;9744;49.364;7.484;2023-02-12T10:36:18;6.80;99.90
19220;DHT22;9744;49.364;7.484;2023-02-12T10:38:54;6.80;99.90
19220;DHT22;9744;49.364;7.484;2023-02-12T10:41:26;6.90;99.90
19220;DHT22;9744;49.364;7.484;2023-02-12T10:43:55;6.90;99.90
19220;DHT22;9744;49.364;7.484;2023-02-12T10:46:23;6.90;99.90
19220;DHT22;9744;49.364;7.484;2023-02-12T10:48:52;6.90;99.90
19220;DHT22;9744;49.364;7.484;2023-02-12T10:51:33;6.90;99.90
19220;DHT22;9744;49.364;7.484;2023-02-12T10:54:39;7.00;99.90
19220;DHT22;9744;49.364;7.484;2023-02-12T10:57:16;7.00;99.90
19220;DHT22;9744;49.364;7.484;2023-02-12T10:59:46;7.00;99.90
19220;DHT22;9744;49.364;7.484;2023-02-12T11:02:19;7.00;99.90
19220;DHT22;9744;49.364;7.484;2023-02-12T11:04:48;7.10;99.90
19220;DHT22;9744;49.364;7.484;2023-02-12T11:07:15;7.00;99.90
19220;DHT22;9744;49.364;7.484;2023-02-12T11:09:44;7.10;99.90
19220;DHT22;9744;49.364;7.484;2023-02-12T11:12:31;7.10;99.90
19220;DHT22;9744;49.364;7.484;2023-02-12T11:15:05;7.10;99.90
19220;DHT22;9744;49.364;7.484;2023-02-12T11:17:36;7.10;99.90
19220;DHT22;9744;49.364;7.484;2023-02-12T11:20:18;7.10;99.90
19220;DHT22;9744;49.364;7.484;2023-02-12T11:22:54;7.10;99.90
19220;DHT22;9744;49.364;7.484;2023-02-12T11:25:22;7.20;99.90
19220;DHT22;9744;49.364;7.484;2023-02-12T11:28:13;7.20;99.90
19220;DHT22;9744;49.364;7.484;2023-02-12T11:30:56;7.20;99.90
19220;DHT22;9744;49.364;7.484;2023-02-12T11:33:32;7.20;99.90
19220;DHT22;9744;49.364;7.484;2023-02-12T11:36:03;7.20;99.90
19220;DHT22;9744;49.364;7.484;2023-02-12T11:38:34;7.30;99.90
19220;DHT22;9744;49.364;7.484;2023-02-12T11:41:21;7.30;99.90
19220;DHT22;9744;49.364;7.484;2023-02-12T11:43:50;7.30;99.90
19220;DHT22;9744;49.364;7.484;2023-02-12T11:46:21;7.40;99.90
19220;DHT22;9744;49.364;7.484;2023-02-12T11:48:50;7.40;99.90
19220;DHT22;9744;49.364;7.484;2023-02-12T11:51:19;7.40;99.90
19220;DHT22;9744;49.364;7.484;2023-02-12T11:53:50;7.50;99.90
19220;DHT22;9744;49.364;7.484;2023-02-12T11:56:19;7.50;99.90
19220;DHT22;9744;49.364;7.484;2023-02-12T11:58:47;7.50;99.90
19220;DHT22;9744;49.364;7.484;2023-02-12T12:01:21;7.50;99.90
19220;DHT22;9744;49.364;7.484;2023-02-12T12:03:54;7.60;99.90
19220;DHT22;9744;49.364;7.484;2023-02-12T12:06:32;7.60;99.90
19220;DHT22;9744;49.364;7.484;2023-02-12T12:09:09;7.60;99.90
19220;DHT22;9744;49.364;7.484;2023-02-12T12:11:46;7.60;99.90
19220;DHT22;9744;49.364;7.484;2023-02-12T12:14:19;7.70;99.90
19220;DHT22;9744;49.364;7.484;2023-02-12T12:16:53;7.80;99.90
19220;DHT22;9744;49.364;7.484;2023-02-12T12:19:45;7.80;99.90
19220;DHT22;9744;49.364;7.484;2023-02-12T12:22:37;7.80;99.90
19220;DHT22;9744;49.364;7.484;2023-02-12T12:28:00;7.90;99.90
19220;DHT22;9744;49.364;7.484;2023-02-12T12:30:46;8.00;99.90
19220;DHT22;9744;49.364;7.484;2023-02-12T12:33:21;8.00;99.90
19220;DHT22;9744;49.364;7.484;2023-02-12T12:35:59;8.10;99.90
19220;DHT22;9744;49.364;7.484;2023-02-12T12:38:36;8.10;99.90
19220;DHT22;9744;49.364;7.484;2023-02-12T12:41:14;8.20;99.90
19220;DHT22;9744;49.364;7.484;2023-02-12T12:43:52;8.30;99.90
19220;DHT22;9744;49.364;7.484;2023-02-12T12:46:35;8.30;99.90
19220;DHT22;9744;49.364;7.484;2023-02-12T12:49:27;8.40;99.90
19220;DHT22;9744;49.364;7.484;2023-02-12T12:52:12;8.40;99.90
19220;DHT22;9744;49.364;7.484;2023-02-12T12:54:59;8.50;99.90
19220;DHT22;9744;49.364;7.484;2023-02-12T12:57:50;8.60;99.90
19220;DHT22;9744;49.364;7.484;2023-02-12T13:00:32;8.60;99.90
19220;DHT22;9744;49.364;7.484;2023-02-12T13:03:19;8.70;99.90
19220;DHT22;9744;49.364;7.484;2023-02-12T13:06:16;8.70;99.90
19220;DHT22;9744;49.364;7.484;2023-02-12T13:08:59;8.80;99.90
19220;DHT22;9744;49.364;7.484;2023-02-12T13:11:37;8.80;99.90
19220;DHT22;9744;49.364;7.484;2023-02-12T13:14:16;8.90;99.90
19220;DHT22;9744;49.364;7.484;2023-02-12T13:16:55;9.00;99.90
19220;DHT22;9744;49.364;7.484;2023-02-12T13:19:35;9.00;99.90
19220;DHT22;9744;49.364;7.484;2023-02-12T13:22:12;9.10;99.90
19220;DHT22;9744;49.364;7.484;2023-02-12T13:24:46;9.10;99.90
19220;DHT22;9744;49.364;7.484;2023-02-12T13:27:17;9.20;99.90
19220;DHT22;9744;49.364;7.484;2023-02-12T13:29:49;9.20;99.90
19220;DHT22;9744;49.364;7.484;2023-02-12T13:32:22;9.30;99.90
19220;DHT22;9744;49.364;7.484;2023-02-12T13:34:52;9.30;99.90
19220;DHT22;9744;49.364;7.484;2023-02-12T13:37:29;9.30;99.90
19220;DHT22;9744;49.364;7.484;2023-02-12T13:40:02;9.40;99.90
19220;DHT22;9744;49.364;7.484;2023-02-12T13:42:40;9.40;99.90
19220;DHT22;9744;49.364;7.484;2023-02-12T13:45:23;9.50;99.90
19220;DHT22;9744;49.364;7.484;2023-02-12T13:48:04;9.60;99.90
19220;DHT22;9744;49.364;7.484;2023-02-12T13:50:40;9.60;99.90
19220;DHT22;9744;49.364;7.484;2023-02-12T13:53:15;9.80;99.90
19220;DHT22;9744;49.364;7.484;2023-02-12T13:55:57;9.80;99.90
19220;DHT22;9744;49.364;7.484;2023-02-12T13:58:48;10.10;99.90
19220;DHT22;9744;49.364;7.484;2023-02-12T14:01:40;10.50;99.90
19220;DHT22;9744;49.364;7.484;2023-02-12T14:04:26;10.90;99.90
19220;DHT22;9744;49.364;7.484;2023-02-12T14:06:57;11.60;99.90
19220;DHT22;9744;49.364;7.484;2023-02-12T14:09:31;12.10;99.90
19220;DHT22;9744;49.364;7.484;2023-02-12T14:12:01;12.30;99.90
19220;DHT22;9744;49.364;7.484;2023-02-12T14:14:33;12.80;99.90
19220;DHT22;9744;49.364;7.484;2023-02-12T14:20:07;13.20;99.90
19220;DHT22;9744;49.364;7.484;2023-02-12T14:22:58;13.20;99.90
19220;DHT22;9744;49.364;7.484;2023-02-12T14:25:34;13.30;99.90
19220;DHT22;9744;49.364;7.484;2023-02-12T14:28:08;13.90;99.90
19220;DHT22;9744;49.364;7.484;2023-02-12T14:30:39;13.80;99.90
19220;DHT22;9744;49.364;7.484;2023-02-12T14:33:27;14.00;99.90
19220;DHT22;9744;49.364;7.484;2023-02-12T14:36:13;14.10;99.90
19220;DHT22;9744;49.364;7.484;2023-02-12T14:38:59;13.80;99.90
19220;DHT22;9744;49.364;7.484;2023-02-12T14:41:44;13.90;99.90
19220;DHT22;9744;49.364;7.484;2023-02-12T14:44:46;13.90;99.90
19220;DHT22;9744;49.364;7.484;2023-02-12T14:50:23;14.30;99.90
19220;DHT22;9744;49.364;7.484;2023-02-12T14:52:54;14.20;99.90
19220;DHT22;9744;49.364;7.484;2023-02-12T14:55:26;14.20;99.90
19220;DHT22;9744;49.364;7.484;2023-02-12T14:58:00;14.30;99.90
19220;DHT22;9744;49.364;7.484;2023-02-12T15:00:31;14.40;99.90
19220;DHT22;9744;49.364;7.484;2023-02-12T15:03:22;14.30;99.90
19220;DHT22;9744;49.364;7.484;2023-02-12T15:06:00;14.20;99.90
19220;DHT22;9744;49.364;7.484;2023-02-12T15:08:33;14.10;99.90
19220;DHT22;9744;49.364;7.484;2023-02-12T15:11:08;14.40;99.90
19220;DHT22;9744;49.364;7.484;2023-02-12T15:13:48;14.50;99.90
19220;DHT22;9744;49.364;7.484;2023-02-12T15:16:23;15.10;99.90
19220;DHT22;9744;49.364;7.484;2023-02-12T15:18:58;14.70;99.90
19220;DHT22;9744;49.364;7.484;2023-02-12T15:21:29;14.80;99.90
19220;DHT22;9744;49.364;7.484;2023-02-12T15:24:01;14.90;99.90
19220;DHT22;9744;49.364;7.484;2023-02-12T15:26:32;14.80;99.90
19220;DHT22;9744;49.364;7.484;2023-02-12T15:29:00;14.90;99.90
19220;DHT22;9744;49.364;7.484;2023-02-12T15:31:29;14.60;99.90
19220;DHT22;9744;49.364;7.484;2023-02-12T15:33:59;14.50;99.90
19220;DHT22;9744;49.364;7.484;2023-02-12T15:36:30;14.30;99.90
19220;DHT22;9744;49.364;7.484;2023-02-12T15:39:00;14.00;99.90
19220;DHT22;9744;49.364;7.484;2023-02-12T15:41:36;14.00;99.90
19220;DHT22;9744;49.364;7.484;2023-02-12T15:44:18;13.90;99.90
19220;DHT22;9744;49.364;7.484;2023-02-12T15:46:57;14.00;99.90
19220;DHT22;9744;49.364;7.484;2023-02-12T15:49:27;13.80;99.90
19220;DHT22;9744;49.364;7.484;2023-02-12T15:51:57;13.70;99.90
19220;DHT22;9744;49.364;7.484;2023-02-12T15:54:26;13.50;99.90
19220;DHT22;9744;49.364;7.484;2023-02-12T15:56:54;13.30;99.90
19220;DHT22;9744;49.364;7.484;2023-02-12T15:59:23;13.00;99.90
19220;DHT22;9744;49.364;7.484;2023-02-12T16:01:52;12.70;99.90
19220;DHT22;9744;49.364;7.484;2023-02-12T16:04:20;12.30;99.90
19220;DHT22;9744;49.364;7.484;2023-02-12T16:06:48;12.20;99.90
19220;DHT22;9744;49.364;7.484;2023-02-12T16:09:18;12.10;99.90
19220;DHT22;9744;49.364;7.484;2023-02-12T16:11:53;12.00;99.90
19220;DHT22;9744;49.364;7.484;2023-02-12T16:14:24;11.90;99.90
19220;DHT22;9744;49.364;7.484;2023-02-12T16:16:55;11.80;99.90
19220;DHT22;9744;49.364;7.484;2023-02-12T16:19:24;11.70;99.90
19220;DHT22;9744;49.364;7.484;2023-02-12T16:21:54;11.70;99.90
19220;DHT22;9744;49.364;7.484;2023-02-12T16:24:30;11.60;99.90
19220;DHT22;9744;49.364;7.484;2023-02-12T16:27:01;11.40;99.90
19220;DHT22;9744;49.364;7.484;2023-02-12T16:29:31;11.20;99.90
19220;DHT22;9744;49.364;7.484;2023-02-12T16:32:02;11.00;99.90
19220;DHT22;9744;49.364;7.484;2023-02-12T16:34:35;10.90;99.90
19220;DHT22;9744;49.364;7.484;2023-02-12T16:37:39;10.70;99.90
19220;DHT22;9744;49.364;7.484;2023-02-12T16:40:27;10.60;99.90
19220;DHT22;9744;49.364;7.484;2023-02-12T16:42:59;10.50;99.90
19220;DHT22;9744;49.364;7.484;2023-02-12T16:45:36;10.40;99.90
19220;DHT22;9744;49.364;7.484;2023-02-12T16:48:08;10.20;99.90